SEO weather

Seguela Airport
Seguela, Worodouqou, Côte d'Ivoire

Public forecast

Using degrees Celsius for public forecast. Weather courtesy of forecast.io.

METAR (pilot weather report)

Report is more than 6 hours old.

Closest report is Man Airport, 66.8 nm (123.8 km) SW. Retrieved 2017/12/31 05:00 UTC (1 year ago):

DIMN 310500Z 00000KT 3000 HZ NSC 17/13 Q1014 NOSIG

TAF (pilot weather forecast)

Forecast is more than 12 hours old.

Closest forecast is Boundiali Airport, 95.1 nm (176.0 km) N. Retrieved 2009/12/27 10:00 UTC (9 years ago):

TAF DIBI 271000Z 2712/2812 30008KT 6000 FEW015 PROB30 TEMPO 2715/2719 3000 HZ TEMPO 2806/2809 3000 BR